Time;durP1;ratioP1;P1;durP2;ratioP2;P2;SDS_P1;SDS_P2;PMS_P1;PMS_P2;Temp;Humidity;BMP_temperature;BMP_pressure;BME280_temperature;BME280_humidity;BME280_pressure;Samples;Min_cycle;Max_cycle;Signal;HPM_P1;HPM_P2
2021/09/27 00:00:10;;;;;;;7.97;5.30;;;17.30;99.90;;;;;;5061289;28;20035;-68
2021/09/27 00:02:36;;;;;;;6.50;4.97;;;17.30;99.90;;;;;;5052680;28;20025;-68
2021/09/27 00:05:02;;;;;;;8.57;5.40;;;17.20;99.90;;;;;;5062199;28;20650;-68
2021/09/27 00:07:28;;;;;;;7.43;4.90;;;17.30;99.90;;;;;;5053286;28;20052;-68
2021/09/27 00:09:54;;;;;;;9.68;4.95;;;17.30;99.90;;;;;;5060728;28;20021;-68
2021/09/27 00:12:20;;;;;;;7.15;4.90;;;17.30;99.90;;;;;;5061928;28;20034;-68
2021/09/27 00:14:46;;;;;;;7.68;5.53;;;17.20;99.90;;;;;;5064254;28;20024;-67
2021/09/27 00:17:11;;;;;;;9.90;5.35;;;17.20;99.90;;;;;;5061865;28;20024;-68
2021/09/27 00:19:38;;;;;;;7.97;5.15;;;17.20;99.90;;;;;;5058988;28;20470;-67
2021/09/27 00:22:05;;;;;;;7.47;4.85;;;17.10;99.90;;;;;;5055307;28;20650;-68
2021/09/27 00:24:31;;;;;;;8.40;5.43;;;17.10;99.90;;;;;;5059209;28;20074;-68
2021/09/27 00:26:57;;;;;;;6.25;4.70;;;17.10;99.90;;;;;;5064286;28;20025;-68
2021/09/27 00:29:23;;;;;;;9.52;5.20;;;17.10;99.90;;;;;;5064329;28;20082;-69
2021/09/27 00:31:48;;;;;;;8.30;5.57;;;17.10;99.90;;;;;;5056283;28;20021;-68
2021/09/27 00:34:14;;;;;;;8.43;5.53;;;17.10;99.90;;;;;;5055694;28;20021;-68
2021/09/27 00:36:40;;;;;;;8.75;5.85;;;17.10;99.90;;;;;;5050644;28;21329;-68
2021/09/27 00:39:06;;;;;;;9.98;5.85;;;17.00;99.90;;;;;;5046768;28;20060;-68
2021/09/27 00:41:33;;;;;;;8.98;6.05;;;17.00;99.90;;;;;;5057036;28;20032;-68
2021/09/27 00:43:59;;;;;;;13.70;7.00;;;17.00;99.90;;;;;;5062174;28;20094;-67
2021/09/27 00:46:27;;;;;;;11.00;6.15;;;17.00;99.90;;;;;;5059225;28;20025;-68
2021/09/27 00:48:54;;;;;;;7.60;5.45;;;17.00;99.90;;;;;;5063467;28;20082;-68
2021/09/27 00:51:23;;;;;;;9.90;5.93;;;17.00;99.90;;;;;;5066914;28;20077;-68
2021/09/27 00:53:54;;;;;;;17.20;6.00;;;17.00;99.90;;;;;;5059515;28;20028;-69
2021/09/27 00:56:24;;;;;;;13.32;6.25;;;17.00;99.90;;;;;;5061673;28;20029;-68
2021/09/27 00:58:51;;;;;;;9.15;5.82;;;16.90;99.90;;;;;;5059696;28;20117;-68
2021/09/27 01:01:18;;;;;;;9.90;6.50;;;16.90;99.90;;;;;;5059981;28;20499;-68
2021/09/27 01:03:44;;;;;;;11.95;6.30;;;16.90;99.90;;;;;;5047467;28;20033;-68
2021/09/27 01:06:35;;;;;;;8.30;5.85;;;16.90;99.90;;;;;;5058107;28;20023;-68
2021/09/27 01:09:14;;;;;;;9.30;5.47;;;16.90;99.90;;;;;;5061889;28;20483;-68
2021/09/27 01:12:00;;;;;;;9.23;5.85;;;16.90;99.90;;;;;;5061305;28;20016;-68
2021/09/27 01:14:46;;;;;;;8.75;5.45;;;16.90;99.90;;;;;;5062426;28;20506;-68
2021/09/27 01:17:25;;;;;;;10.10;6.18;;;16.90;99.90;;;;;;5061538;28;20391;-68
2021/09/27 01:20:21;;;;;;;9.30;5.47;;;16.80;99.90;;;;;;5060052;28;20052;-68
2021/09/27 01:23:18;;;;;;;9.82;6.25;;;16.90;99.90;;;;;;5065063;28;20029;-69
2021/09/27 01:26:22;;;;;;;12.15;5.82;;;16.90;99.90;;;;;;5063762;28;20043;-68
2021/09/27 01:28:57;;;;;;;16.23;4.53;;;16.80;99.90;;;;;;5000573;28;20030;-68
2021/09/27 01:31:58;;;;;;;5.85;3.67;;;16.80;99.90;;;;;;4997004;28;20026;-68
2021/09/27 01:34:36;;;;;;;3.40;2.47;;;16.80;99.90;;;;;;5047027;28;20052;-68
2021/09/27 01:37:20;;;;;;;5.05;2.63;;;16.80;99.90;;;;;;5055674;28;20503;-68
2021/09/27 01:39:56;;;;;;;3.80;2.15;;;16.80;99.90;;;;;;5060888;28;20043;-68
2021/09/27 01:42:26;;;;;;;3.65;1.83;;;16.70;99.90;;;;;;5066281;28;20468;-68
2021/09/27 01:44:56;;;;;;;2.30;1.80;;;16.70;99.90;;;;;;5060855;28;20028;-69
2021/09/27 01:47:28;;;;;;;2.83;1.75;;;16.70;99.90;;;;;;5061312;28;20547;-68
2021/09/27 01:50:06;;;;;;;2.45;1.48;;;16.70;99.90;;;;;;5063186;28;20028;-68
2021/09/27 01:53:07;;;;;;;3.67;1.52;;;16.70;99.90;;;;;;5056570;28;20082;-68
2021/09/27 01:55:42;;;;;;;1.73;1.52;;;16.70;99.90;;;;;;4978039;28;20129;-68
2021/09/27 01:58:27;;;;;;;1.67;1.35;;;16.70;99.90;;;;;;5061629;28;20598;-69
2021/09/27 02:00:59;;;;;;;1.67;1.15;;;16.70;99.90;;;;;;5056222;28;20048;-68
2021/09/27 02:03:47;;;;;;;0.63;0.63;;;16.80;99.90;;;;;;5060769;28;20069;-67
2021/09/27 02:06:39;;;;;;;0.93;0.90;;;16.80;99.90;;;;;;5064388;28;20067;-68
2021/09/27 02:09:42;;;;;;;1.73;1.40;;;16.80;99.90;;;;;;5064053;28;20041;-68
2021/09/27 02:12:13;;;;;;;1.08;0.98;;;16.80;99.90;;;;;;5064903;28;20491;-68
2021/09/27 02:15:04;;;;;;;1.35;1.17;;;16.90;99.90;;;;;;5065767;28;20107;-68
2021/09/27 02:17:55;;;;;;;1.63;1.42;;;16.90;99.90;;;;;;5057576;28;20021;-68
2021/09/27 02:20:33;;;;;;;1.30;0.85;;;16.90;99.90;;;;;;5055902;28;20029;-68
2021/09/27 02:23:07;;;;;;;0.75;0.75;;;17.00;99.90;;;;;;5053680;28;20024;-68
2021/09/27 02:25:37;;;;;;;0.68;0.68;;;17.00;99.90;;;;;;5059686;28;20066;-68
2021/09/27 02:28:16;;;;;;;1.00;0.90;;;17.10;99.90;;;;;;5051458;28;20064;-68
2021/09/27 02:30:46;;;;;;;0.82;0.52;;;17.10;99.90;;;;;;5062284;28;20032;-68
2021/09/27 02:33:58;;;;;;;1.77;1.35;;;17.10;99.90;;;;;;5065624;28;20670;-68
2021/09/27 02:36:29;;;;;;;0.80;0.80;;;17.10;99.90;;;;;;5049888;28;20119;-68
2021/09/27 02:39:21;;;;;;;0.95;0.95;;;17.20;99.90;;;;;;5061270;28;20025;-68
2021/09/27 02:41:59;;;;;;;1.10;0.85;;;17.20;99.90;;;;;;5063884;28;20473;-68
2021/09/27 02:44:25;;;;;;;1.05;0.95;;;17.20;99.90;;;;;;5064011;28;20487;-68
2021/09/27 02:46:55;;;;;;;1.30;1.17;;;17.20;99.90;;;;;;5060587;28;20025;-68
2021/09/27 02:49:28;;;;;;;0.93;0.93;;;17.20;99.90;;;;;;5055875;28;20025;-68
2021/09/27 02:51:57;;;;;;;1.13;0.60;;;17.20;99.90;;;;;;5060509;28;20036;-68
2021/09/27 02:54:39;;;;;;;0.90;0.47;;;17.20;99.90;;;;;;5056399;28;20394;-68
2021/09/27 02:57:11;;;;;;;0.70;0.70;;;17.20;99.90;;;;;;5054110;28;20041;-68
2021/09/27 03:00:06;;;;;;;0.85;0.85;;;17.20;99.90;;;;;;5052712;28;20068;-68
2021/09/27 03:02:56;;;;;;;1.02;0.90;;;17.20;99.90;;;;;;5054560;28;20074;-69
2021/09/27 03:05:46;;;;;;;0.43;0.43;;;17.10;99.90;;;;;;5062114;28;20031;-68
2021/09/27 03:08:36;;;;;;;1.17;0.75;;;17.10;99.90;;;;;;5051433;28;20487;-68
2021/09/27 03:11:29;;;;;;;0.70;0.70;;;17.10;99.90;;;;;;5056642;28;20441;-68
2021/09/27 03:14:13;;;;;;;0.98;0.88;;;17.10;99.90;;;;;;5057275;28;20144;-68
2021/09/27 03:17:12;;;;;;;0.85;0.77;;;17.00;99.90;;;;;;5064238;28;20089;-68
2021/09/27 03:19:55;;;;;;;0.68;0.68;;;17.00;99.90;;;;;;5058279;28;20502;-68
2021/09/27 03:22:52;;;;;;;0.82;0.77;;;17.00;99.90;;;;;;5048772;28;20029;-68
2021/09/27 03:25:32;;;;;;;1.35;1.25;;;16.90;99.90;;;;;;5067606;28;20246;-68
2021/09/27 03:28:16;;;;;;;1.48;0.82;;;16.90;99.90;;;;;;5055083;28;20039;-68
2021/09/27 03:31:10;;;;;;;1.10;1.05;;;16.90;99.90;;;;;;5060473;28;20024;-68
2021/09/27 03:33:51;;;;;;;0.90;0.52;;;16.90;99.90;;;;;;5063730;28;20032;-68
2021/09/27 03:36:56;;;;;;;0.65;0.65;;;17.00;99.90;;;;;;5059232;28;20055;-68
2021/09/27 03:39:50;;;;;;;0.60;0.60;;;16.90;99.90;;;;;;5057059;28;20062;-68
2021/09/27 03:42:39;;;;;;;0.93;0.55;;;16.90;99.90;;;;;;5060853;28;20554;-68
2021/09/27 03:45:24;;;;;;;1.45;1.20;;;16.90;99.90;;;;;;5058629;28;20055;-68
2021/09/27 03:48:00;;;;;;;0.60;0.60;;;16.90;99.90;;;;;;5062862;28;20035;-68
2021/09/27 03:50:47;;;;;;;1.23;1.17;;;16.80;99.90;;;;;;5059015;28;20176;-68
2021/09/27 03:53:23;;;;;;;1.35;1.25;;;16.90;99.90;;;;;;5054300;28;20024;-68
2021/09/27 03:55:55;;;;;;;1.35;0.80;;;16.90;99.90;;;;;;5058345;28;20048;-68
2021/09/27 03:58:27;;;;;;;0.75;0.75;;;16.90;99.90;;;;;;5055008;28;20055;-69
2021/09/27 04:01:08;;;;;;;0.98;0.95;;;16.90;99.90;;;;;;5061556;28;20043;-68
2021/09/27 04:03:42;;;;;;;0.73;0.70;;;16.90;99.90;;;;;;5054815;28;20287;-68
2021/09/27 04:06:38;;;;;;;4.43;1.35;;;16.90;99.90;;;;;;5058098;28;20025;-68
2021/09/27 04:09:36;;;;;;;1.00;0.70;;;17.00;99.90;;;;;;5058632;28;20032;-68
2021/09/27 04:12:22;;;;;;;0.52;0.52;;;17.00;99.90;;;;;;5059510;28;20063;-70
2021/09/27 04:14:54;;;;;;;1.35;1.20;;;17.00;99.90;;;;;;5062071;28;20017;-69
2021/09/27 04:17:38;;;;;;;;;;;17.00;99.90;;;;;;5059274;28;20112;-69
2021/09/27 04:20:16;;;;;;;0.95;0.93;;;17.10;99.90;;;;;;5059185;28;20501;-70
2021/09/27 04:23:17;;;;;;;1.00;1.00;;;17.10;99.90;;;;;;5059325;28;20041;-69
2021/09/27 04:25:52;;;;;;;0.93;0.77;;;17.10;99.90;;;;;;5045663;28;20163;-68
2021/09/27 04:28:48;;;;;;;0.57;0.57;;;17.00;99.90;;;;;;5055278;28;20378;-68
2021/09/27 04:31:38;;;;;;;1.38;0.82;;;17.10;99.90;;;;;;5066964;28;20032;-68
2021/09/27 04:34:34;;;;;;;0.60;0.60;;;17.00;99.90;;;;;;5066398;28;20044;-68
2021/09/27 04:37:01;;;;;;;1.17;1.02;;;17.00;99.90;;;;;;5064190;28;20032;-68
2021/09/27 04:39:32;;;;;;;1.17;1.10;;;17.00;99.90;;;;;;5065511;28;20040;-68
2021/09/27 04:42:24;;;;;;;3.25;0.93;;;17.10;99.90;;;;;;5058963;28;20035;-69
2021/09/27 04:45:14;;;;;;;1.10;1.10;;;17.10;99.90;;;;;;5059111;28;20578;-69
2021/09/27 04:47:52;;;;;;;0.43;0.43;;;17.10;99.90;;;;;;5062803;28;20534;-69
2021/09/27 04:50:36;;;;;;;1.17;1.08;;;17.00;99.90;;;;;;5061269;28;20047;-69
2021/09/27 04:53:29;;;;;;;0.77;0.73;;;17.10;99.90;;;;;;5065569;28;20059;-69
2021/09/27 04:56:13;;;;;;;0.95;0.77;;;17.10;99.90;;;;;;5062585;28;20043;-69
2021/09/27 04:59:04;;;;;;;1.77;1.58;;;17.10;99.90;;;;;;5054314;28;20095;-69
2021/09/27 05:02:01;;;;;;;0.80;0.80;;;17.10;99.90;;;;;;5055002;28;20036;-73
2021/09/27 05:04:36;;;;;;;1.08;0.98;;;17.10;99.90;;;;;;5065234;28;20020;-71
2021/09/27 05:07:32;;;;;;;1.25;1.00;;;17.10;99.90;;;;;;5064584;28;20411;-73
2021/09/27 05:10:29;;;;;;;1.10;1.00;;;17.10;99.90;;;;;;5052660;28;20039;-73
2021/09/27 05:13:13;;;;;;;2.50;0.98;;;17.10;99.90;;;;;;5053593;28;20037;-73
2021/09/27 05:16:00;;;;;;;1.15;0.85;;;17.20;99.90;;;;;;5051450;28;20043;-72
2021/09/27 05:18:44;;;;;;;1.38;1.23;;;17.20;99.90;;;;;;5057740;28;20594;-72
2021/09/27 05:21:27;;;;;;;1.05;1.05;;;17.20;99.90;;;;;;5057466;28;20036;-73
2021/09/27 05:24:33;;;;;;;0.75;0.68;;;17.20;99.90;;;;;;5053906;28;20025;-73
2021/09/27 05:27:31;;;;;;;1.52;0.70;;;17.20;99.90;;;;;;5035571;28;20494;-72
2021/09/27 05:30:12;;;;;;;0.85;0.77;;;17.20;99.90;;;;;;5063741;28;20442;-72
2021/09/27 05:32:49;;;;;;;0.75;0.57;;;17.20;99.90;;;;;;5056822;28;20055;-71
2021/09/27 05:35:29;;;;;;;0.65;0.65;;;17.20;99.90;;;;;;5061946;28;20395;-72
2021/09/27 05:38:06;;;;;;;2.95;0.90;;;17.20;99.90;;;;;;5056125;28;20021;-72
2021/09/27 05:40:54;;;;;;;0.88;0.70;;;17.20;99.90;;;;;;5054877;28;20442;-69
2021/09/27 05:43:46;;;;;;;0.65;0.65;;;17.20;99.90;;;;;;5059946;28;20052;-69
2021/09/27 05:46:48;;;;;;;1.40;0.98;;;17.20;99.90;;;;;;5068423;28;20028;-69
2021/09/27 05:49:27;;;;;;;0.88;0.82;;;17.30;99.90;;;;;;5057248;28;20105;-68
2021/09/27 05:52:03;;;;;;;1.98;1.38;;;17.30;99.90;;;;;;5059987;28;20051;-71
2021/09/27 05:54:53;;;;;;;1.05;1.00;;;17.30;99.90;;;;;;5064660;28;20532;-71
2021/09/27 06:01:16;;;;;;;0.98;0.82;;;17.40;99.90;;;;;;5000017;28;20038;-72
2021/09/27 06:04:09;;;;;;;1.05;0.95;;;17.40;99.90;;;;;;5057381;28;20763;-71
2021/09/27 06:06:49;;;;;;;1.38;1.15;;;17.40;99.90;;;;;;5063771;28;20055;-71
2021/09/27 06:09:31;;;;;;;0.75;0.75;;;17.50;99.90;;;;;;5066036;28;20025;-71
2021/09/27 06:12:06;;;;;;;1.52;1.42;;;17.50;99.90;;;;;;5066353;28;20028;-71
2021/09/27 06:14:33;;;;;;;1.08;1.02;;;17.50;99.90;;;;;;5065426;28;20036;-71
2021/09/27 06:17:34;;;;;;;0.60;0.60;;;17.50;99.90;;;;;;5058478;28;20031;-71
2021/09/27 06:20:08;;;;;;;0.88;0.88;;;17.50;99.90;;;;;;5038240;28;20037;-71
2021/09/27 06:22:48;;;;;;;0.65;0.65;;;17.50;99.90;;;;;;5067204;28;20557;-71
2021/09/27 06:25:37;;;;;;;1.17;1.13;;;17.50;99.90;;;;;;5066006;28;20025;-71
2021/09/27 06:28:32;;;;;;;0.60;0.57;;;17.60;99.90;;;;;;5063693;28;20736;-71
2021/09/27 06:31:24;;;;;;;1.20;1.10;;;17.60;99.90;;;;;;5062780;28;20596;-70
2021/09/27 06:33:59;;;;;;;0.52;0.52;;;17.60;99.90;;;;;;5058902;28;20035;-71
2021/09/27 06:36:29;;;;;;;0.50;0.50;;;17.60;99.90;;;;;;5060309;28;20032;-71
2021/09/27 06:38:57;;;;;;;1.67;1.58;;;17.70;99.90;;;;;;5065887;28;20059;-71
2021/09/27 06:41:26;;;;;;;2.72;1.50;;;17.70;99.90;;;;;;5064740;28;20074;-71
2021/09/27 06:43:52;;;;;;;2.33;1.20;;;17.70;99.90;;;;;;5065029;28;20024;-71
2021/09/27 06:46:19;;;;;;;0.80;0.80;;;17.80;99.90;;;;;;5064975;28;20035;-71
2021/09/27 06:48:45;;;;;;;1.10;1.10;;;17.90;99.90;;;;;;5064831;28;20029;-71
2021/09/27 06:51:11;;;;;;;1.63;1.52;;;17.90;99.90;;;;;;5062800;28;20029;-71
2021/09/27 06:53:36;;;;;;;4.03;0.95;;;18.00;99.90;;;;;;5059911;28;20046;-71
2021/09/27 06:56:02;;;;;;;3.25;1.35;;;18.00;99.90;;;;;;5063204;28;20202;-71
2021/09/27 06:58:28;;;;;;;2.95;1.67;;;18.00;99.90;;;;;;5064647;28;20048;-71
2021/09/27 07:00:54;;;;;;;0.95;0.80;;;18.10;99.90;;;;;;5066767;28;20586;-71
2021/09/27 07:03:20;;;;;;;1.05;1.05;;;18.10;99.90;;;;;;5060907;28;20028;-71
2021/09/27 07:05:46;;;;;;;1.60;1.50;;;18.10;99.90;;;;;;5064825;28;20410;-71
2021/09/27 07:08:12;;;;;;;1.25;0.82;;;18.20;99.90;;;;;;5050429;28;20093;-71
2021/09/27 07:10:38;;;;;;;1.63;1.52;;;18.20;99.90;;;;;;5060710;28;20039;-71
2021/09/27 07:13:03;;;;;;;1.48;1.38;;;18.20;99.90;;;;;;5057738;28;20427;-71
2021/09/27 07:15:29;;;;;;;1.73;1.08;;;18.20;99.90;;;;;;5056858;28;20032;-71
2021/09/27 07:17:54;;;;;;;3.70;1.50;;;18.20;99.90;;;;;;5068496;28;20062;-71
2021/09/27 07:20:25;;;;;;;1.05;1.00;;;18.30;99.90;;;;;;5064412;28;20038;-71
2021/09/27 07:22:51;;;;;;;0.70;0.70;;;18.30;99.90;;;;;;5062184;28;20020;-71
2021/09/27 07:25:17;;;;;;;1.13;1.02;;;18.30;99.90;;;;;;5044353;28;20400;-71
2021/09/27 07:27:43;;;;;;;1.67;1.58;;;18.30;99.90;;;;;;5063062;28;20514;-71
2021/09/27 07:30:10;;;;;;;1.48;1.33;;;18.40;99.90;;;;;;5062153;28;20573;-71
2021/09/27 07:32:36;;;;;;;0.95;0.90;;;18.40;99.90;;;;;;5064050;28;20055;-72
2021/09/27 07:35:03;;;;;;;0.68;0.68;;;18.40;99.90;;;;;;5060635;28;20474;-71
2021/09/27 07:37:29;;;;;;;2.00;0.95;;;18.40;99.90;;;;;;5064278;28;20024;-71
2021/09/27 07:39:54;;;;;;;1.33;1.15;;;18.50;99.90;;;;;;5060067;28;20544;-71
2021/09/27 07:42:19;;;;;;;0.90;0.90;;;18.50;99.90;;;;;;5059037;28;20756;-71
2021/09/27 07:44:45;;;;;;;1.30;1.20;;;18.60;99.90;;;;;;5060160;28;20124;-71
2021/09/27 07:47:10;;;;;;;0.77;0.77;;;18.70;99.90;;;;;;5062636;28;20021;-70
2021/09/27 07:49:36;;;;;;;5.78;1.95;;;18.80;99.90;;;;;;5061486;28;20041;-71
2021/09/27 07:52:02;;;;;;;2.08;1.48;;;18.90;99.90;;;;;;5063652;28;20105;-71
2021/09/27 07:54:27;;;;;;;2.15;1.70;;;18.90;99.90;;;;;;5064735;28;20036;-71
2021/09/27 07:56:53;;;;;;;0.65;0.65;;;19.00;99.90;;;;;;5061066;28;20471;-71
2021/09/27 07:59:18;;;;;;;0.60;0.60;;;19.00;99.90;;;;;;5059492;28;20075;-71
2021/09/27 08:01:44;;;;;;;0.98;0.95;;;19.10;99.90;;;;;;5056964;28;20036;-71
2021/09/27 08:04:10;;;;;;;1.52;1.00;;;19.20;99.90;;;;;;5057691;28;20021;-72
2021/09/27 08:06:36;;;;;;;0.60;0.60;;;19.20;99.90;;;;;;5063523;28;20063;-71
2021/09/27 08:09:03;;;;;;;1.25;0.68;;;19.30;99.90;;;;;;5058795;28;20036;-71
2021/09/27 08:11:28;;;;;;;0.63;0.63;;;19.30;99.90;;;;;;5053794;28;20042;-71
2021/09/27 08:13:54;;;;;;;1.25;1.17;;;19.40;99.90;;;;;;5063982;28;20793;-71
2021/09/27 08:16:20;;;;;;;0.88;0.88;;;19.50;99.90;;;;;;5058637;28;20077;-72
2021/09/27 08:18:46;;;;;;;1.05;0.93;;;19.60;99.90;;;;;;5061088;28;20048;-71
2021/09/27 08:21:14;;;;;;;0.80;0.80;;;19.70;99.90;;;;;;5062540;28;20020;-72
2021/09/27 08:23:40;;;;;;;1.25;1.13;;;19.80;99.90;;;;;;5062341;28;20024;-71
2021/09/27 08:26:06;;;;;;;1.58;1.30;;;19.80;99.90;;;;;;5063209;28;20021;-71
2021/09/27 08:28:33;;;;;;;2.00;1.58;;;19.90;99.90;;;;;;5063011;28;20036;-71
2021/09/27 08:31:03;;;;;;;0.70;0.63;;;19.80;99.90;;;;;;5060943;28;20033;-71
2021/09/27 08:33:30;;;;;;;2.17;1.42;;;19.90;99.90;;;;;;5065617;28;20040;-71
2021/09/27 08:35:58;;;;;;;0.88;0.85;;;19.90;99.90;;;;;;5058580;28;20083;-71
2021/09/27 08:38:25;;;;;;;0.90;0.90;;;19.80;99.90;;;;;;5065580;28;20025;-71
2021/09/27 08:41:12;;;;;;;0.82;0.82;;;19.80;99.90;;;;;;5062058;28;20031;-71
2021/09/27 08:44:04;;;;;;;1.60;0.80;;;19.80;99.90;;;;;;5059870;28;20029;-71
2021/09/27 08:46:42;;;;;;;2.45;2.13;;;19.80;99.90;;;;;;5057931;28;20103;-71
2021/09/27 08:49:22;;;;;;;1.15;1.10;;;19.70;99.90;;;;;;5046537;28;20032;-71
2021/09/27 08:51:57;;;;;;;1.52;1.42;;;19.70;99.90;;;;;;5061760;28;20295;-71
2021/09/27 08:54:26;;;;;;;1.67;1.33;;;19.60;99.90;;;;;;5063711;28;20024;-71
2021/09/27 08:57:12;;;;;;;1.30;1.20;;;19.60;99.90;;;;;;5059603;28;20086;-71
2021/09/27 09:00:11;;;;;;;2.28;1.02;;;19.60;99.90;;;;;;5053656;28;20056;-71
2021/09/27 09:02:55;;;;;;;0.95;0.95;;;19.70;99.90;;;;;;5058714;28;20112;-71
2021/09/27 09:06:02;;;;;;;1.50;1.13;;;19.80;99.90;;;;;;5062818;28;20082;-71
2021/09/27 09:08:42;;;;;;;1.52;1.30;;;19.80;99.90;;;;;;5062918;28;20248;-71
2021/09/27 09:11:43;;;;;;;0.77;0.77;;;19.80;99.90;;;;;;5059877;28;20046;-72
2021/09/27 09:14:28;;;;;;;1.25;1.15;;;19.70;99.90;;;;;;5059860;28;20028;-71
2021/09/27 09:16:54;;;;;;;1.75;1.58;;;19.70;99.90;;;;;;5068391;28;20089;-71
2021/09/27 09:19:23;;;;;;;1.38;1.25;;;19.70;99.90;;;;;;5065304;28;20025;-71
2021/09/27 09:21:57;;;;;;;1.45;1.23;;;19.60;99.90;;;;;;5060179;28;20017;-71
2021/09/27 09:24:27;;;;;;;5.65;1.25;;;19.60;99.90;;;;;;5056842;28;20112;-72
2021/09/27 09:26:59;;;;;;;1.70;1.23;;;19.60;99.90;;;;;;5062952;28;20025;-71
2021/09/27 09:29:31;;;;;;;2.05;1.15;;;19.50;99.90;;;;;;5069825;28;20040;-71
2021/09/27 09:32:00;;;;;;;1.35;1.08;;;19.50;99.90;;;;;;5065059;28;20074;-71
2021/09/27 09:34:35;;;;;;;0.55;0.55;;;19.50;99.90;;;;;;5066707;28;20051;-71
2021/09/27 09:37:10;;;;;;;1.05;0.88;;;19.50;99.90;;;;;;5064085;28;20047;-71
2021/09/27 09:39:41;;;;;;;0.90;0.88;;;19.60;99.90;;;;;;5061125;28;20025;-72
2021/09/27 09:42:31;;;;;;;1.13;1.13;;;19.60;99.90;;;;;;5066558;28;20095;-71
2021/09/27 09:45:16;;;;;;;3.25;1.23;;;19.70;99.90;;;;;;5063511;28;20107;-71
2021/09/27 09:47:42;;;;;;;2.15;1.13;;;19.80;99.90;;;;;;5067650;28;20497;-71
2021/09/27 09:50:30;;;;;;;2.72;1.13;;;19.80;99.90;;;;;;5066124;28;20102;-72
2021/09/27 09:52:59;;;;;;;2.42;1.55;;;19.80;99.90;;;;;;5062254;28;20028;-71
2021/09/27 09:55:39;;;;;;;1.60;1.50;;;19.80;99.90;;;;;;5066621;28;20433;-71
2021/09/27 09:58:12;;;;;;;3.17;1.13;;;19.90;99.90;;;;;;5055914;28;20112;-71
2021/09/27 10:00:47;;;;;;;2.13;1.45;;;19.90;99.90;;;;;;5067159;28;20094;-71
2021/09/27 10:03:16;;;;;;;1.40;1.30;;;19.90;99.90;;;;;;5064059;28;20443;-71
2021/09/27 10:05:56;;;;;;;1.73;1.05;;;20.00;99.90;;;;;;5062384;28;20027;-71
2021/09/27 10:08:24;;;;;;;0.65;0.65;;;20.00;99.90;;;;;;5069564;28;20044;-71
2021/09/27 10:11:03;;;;;;;5.03;1.30;;;20.10;99.90;;;;;;5063850;28;20098;-71
2021/09/27 10:13:35;;;;;;;22.35;2.50;;;20.10;99.90;;;;;;5060452;28;20487;-71
2021/09/27 10:16:04;;;;;;;1.45;1.35;;;20.10;99.90;;;;;;5062315;28;20033;-71
2021/09/27 10:18:38;;;;;;;1.48;1.38;;;20.20;99.90;;;;;;5066040;28;20052;-71
2021/09/27 10:21:24;;;;;;;1.38;1.27;;;20.20;99.90;;;;;;5065638;28;20029;-71
2021/09/27 10:23:58;;;;;;;0.90;0.73;;;20.20;99.90;;;;;;5063663;28;20245;-71
2021/09/27 10:26:35;;;;;;;1.85;1.75;;;20.30;99.90;;;;;;5067125;28;20025;-71
2021/09/27 10:29:11;;;;;;;1.52;1.38;;;20.30;99.90;;;;;;5063941;28;20048;-71
2021/09/27 10:31:40;;;;;;;1.60;1.35;;;20.30;99.90;;;;;;5056489;28;20107;-71
2021/09/27 10:34:14;;;;;;;7.97;1.70;;;20.40;99.90;;;;;;5062966;28;20116;-71
2021/09/27 10:36:52;;;;;;;0.93;0.93;;;20.50;99.90;;;;;;5065209;28;20042;-70
2021/09/27 10:39:20;;;;;;;2.22;1.27;;;20.50;99.90;;;;;;5065234;28;20134;-71
2021/09/27 10:42:07;;;;;;;0.88;0.80;;;20.50;99.90;;;;;;5064283;28;20426;-71
2021/09/27 10:44:47;;;;;;;1.70;1.60;;;20.50;99.90;;;;;;5054935;28;20029;-71
2021/09/27 10:47:20;;;;;;;1.98;1.42;;;20.50;99.90;;;;;;5063777;28;20044;-71
2021/09/27 10:49:52;;;;;;;1.30;1.20;;;20.50;99.90;;;;;;5061375;28;20490;-71
2021/09/27 10:52:19;;;;;;;0.80;0.80;;;20.50;99.90;;;;;;5065486;28;20477;-70
2021/09/27 10:54:56;;;;;;;1.55;1.45;;;20.50;99.90;;;;;;5062534;28;20031;-70
2021/09/27 10:57:25;;;;;;;2.50;1.90;;;20.50;99.90;;;;;;5064551;28;20062;-71
2021/09/27 10:59:59;;;;;;;1.65;1.55;;;20.60;99.90;;;;;;5062976;28;20060;-71
2021/09/27 11:02:44;;;;;;;1.67;1.58;;;20.60;99.90;;;;;;5065539;28;20082;-70
2021/09/27 11:05:21;;;;;;;0.93;0.90;;;20.70;99.90;;;;;;5061980;28;20111;-70
2021/09/27 11:07:53;;;;;;;2.33;1.50;;;20.80;99.90;;;;;;5066255;28;20025;-71
2021/09/27 11:10:40;;;;;;;1.27;1.17;;;20.90;99.90;;;;;;5062190;28;20168;-71
2021/09/27 11:13:07;;;;;;;4.95;1.80;;;21.00;99.90;;;;;;5063742;28;20067;-71
2021/09/27 11:15:39;;;;;;;0.85;0.85;;;21.20;99.90;;;;;;5060356;28;20036;-70
2021/09/27 11:18:24;;;;;;;1.92;1.27;;;21.30;99.90;;;;;;5062671;28;20044;-70
2021/09/27 11:20:50;;;;;;;1.38;1.27;;;21.40;99.90;;;;;;5058553;28;20032;-71
2021/09/27 11:23:21;;;;;;;1.35;1.25;;;21.50;99.90;;;;;;5060284;28;20146;-71
2021/09/27 11:26:14;;;;;;;3.20;1.48;;;21.70;99.90;;;;;;5063558;28;20021;-71
2021/09/27 11:28:48;;;;;;;1.40;1.20;;;21.90;99.90;;;;;;5062830;28;20123;-71
2021/09/27 11:31:25;;;;;;;1.08;0.98;;;22.10;99.90;;;;;;5063211;28;20119;-71
2021/09/27 11:33:52;;;;;;;5.32;2.17;;;22.30;99.90;;;;;;5051790;28;20047;-71
2021/09/27 11:36:17;;;;;;;0.93;0.82;;;22.60;99.90;;;;;;5061834;28;20041;-71
2021/09/27 11:39:04;;;;;;;7.90;2.15;;;22.70;99.90;;;;;;5063134;28;20032;-71
2021/09/27 11:41:33;;;;;;;1.42;1.33;;;22.80;99.00;;;;;;5062383;28;20368;-71
2021/09/27 11:44:24;;;;;;;2.38;1.45;;;22.60;98.80;;;;;;5064836;28;20108;-71
2021/09/27 11:46:59;;;;;;;2.22;1.65;;;22.50;99.90;;;;;;5053089;28;20021;-71
2021/09/27 11:49:34;;;;;;;1.98;1.63;;;22.50;99.90;;;;;;5063554;28;20044;-71
2021/09/27 11:52:05;;;;;;;1.02;1.02;;;22.50;99.80;;;;;;5054356;28;20024;-71
2021/09/27 11:55:00;;;;;;;1.48;1.27;;;22.40;99.60;;;;;;5064648;28;20020;-71
2021/09/27 11:57:36;;;;;;;1.65;0.90;;;22.30;99.90;;;;;;5054564;28;20027;-71
2021/09/27 12:00:20;;;;;;;1.95;1.55;;;22.30;99.90;;;;;;5054942;28;20103;-71
2021/09/27 12:03:11;;;;;;;0.73;0.73;;;22.10;99.90;;;;;;5065517;28;20040;-71
2021/09/27 12:05:59;;;;;;;1.33;1.23;;;22.00;99.90;;;;;;5062086;28;20071;-72
2021/09/27 12:08:34;;;;;;;1.15;1.05;;;21.80;99.90;;;;;;5061193;28;20116;-73
2021/09/27 12:11:07;;;;;;;1.10;1.00;;;21.70;99.90;;;;;;5060423;28;20027;-72
2021/09/27 12:13:49;;;;;;;1.30;1.20;;;21.60;99.90;;;;;;5060055;28;20224;-73
2021/09/27 12:16:23;;;;;;;1.95;1.42;;;21.60;99.90;;;;;;5061309;28;20108;-69
2021/09/27 12:18:55;;;;;;;1.10;1.00;;;21.60;99.90;;;;;;5061866;28;20396;-68
2021/09/27 12:21:27;;;;;;;1.45;1.35;;;21.60;99.90;;;;;;5067595;28;20035;-68
2021/09/27 12:23:54;;;;;;;1.23;1.05;;;21.60;99.90;;;;;;5049409;28;20028;-77
2021/09/27 12:26:32;;;;;;;0.95;0.80;;;21.70;99.90;;;;;;5056423;28;20521;-72
2021/09/27 12:29:19;;;;;;;1.80;1.48;;;21.80;99.90;;;;;;5062006;28;20032;-70
2021/09/27 12:31:59;;;;;;;0.75;0.75;;;21.90;99.90;;;;;;5060739;28;20028;-69
2021/09/27 12:34:33;;;;;;;1.10;1.10;;;22.00;99.80;;;;;;5061548;28;20028;-69
2021/09/27 12:36:59;;;;;;;1.50;1.40;;;22.10;99.80;;;;;;5056137;28;20103;-70
2021/09/27 12:39:27;;;;;;;0.75;0.75;;;22.10;99.50;;;;;;5058342;28;20104;-71
2021/09/27 12:41:56;;;;;;;0.90;0.82;;;22.10;99.20;;;;;;5059699;28;20035;-70
2021/09/27 12:44:32;;;;;;;1.48;1.00;;;22.10;99.40;;;;;;5061095;28;20070;-70
2021/09/27 12:47:03;;;;;;;0.85;0.85;;;22.20;98.70;;;;;;5058315;28;20031;-72
2021/09/27 12:49:41;;;;;;;2.53;1.05;;;22.20;98.40;;;;;;5056859;28;20060;-71
2021/09/27 12:52:10;;;;;;;1.17;1.08;;;22.20;98.10;;;;;;5055249;28;20037;-71
2021/09/27 12:55:08;;;;;;;1.25;0.85;;;22.20;98.70;;;;;;5054766;28;20048;-71
2021/09/27 12:57:40;;;;;;;0.65;0.65;;;22.20;97.90;;;;;;5039441;28;20064;-74
2021/09/27 13:00:14;;;;;;;1.77;1.25;;;22.30;97.90;;;;;;5051860;28;20036;-73
2021/09/27 13:02:45;;;;;;;1.55;1.27;;;22.30;97.60;;;;;;5062010;28;20021;-73
2021/09/27 13:05:18;;;;;;;1.48;1.38;;;22.40;97.60;;;;;;5068408;28;20021;-73
2021/09/27 13:07:47;;;;;;;0.68;0.68;;;22.40;96.90;;;;;;5067195;28;20359;-73
2021/09/27 13:10:24;;;;;;;6.75;1.52;;;22.30;97.90;;;;;;5056473;28;20029;-73
2021/09/27 13:13:22;;;;;;;1.45;1.35;;;22.30;98.10;;;;;;5057661;28;20134;-73
2021/09/27 13:15:56;;;;;;;1.90;1.15;;;22.30;97.60;;;;;;5046704;28;20044;-73
2021/09/27 13:18:36;;;;;;;0.82;0.82;;;22.30;97.70;;;;;;5057154;28;20020;-74
2021/09/27 13:21:13;;;;;;;1.57;1.20;;;22.20;98.80;;;;;;5058404;28;20433;-74
2021/09/27 13:23:41;;;;;;;0.73;0.73;;;22.20;98.30;;;;;;5054061;28;20062;-74
2021/09/27 13:26:17;;;;;;;1.55;1.45;;;22.10;98.50;;;;;;5056822;28;20487;-74
2021/09/27 13:28:52;;;;;;;1.58;1.48;;;22.00;99.00;;;;;;5058607;28;20029;-72
2021/09/27 13:31:24;;;;;;;1.00;1.00;;;22.00;99.60;;;;;;5051852;28;20041;-69
2021/09/27 13:34:01;;;;;;;0.82;0.82;;;21.90;99.90;;;;;;5064676;28;20947;-70
2021/09/27 13:36:32;;;;;;;1.08;0.98;;;21.90;99.90;;;;;;5055982;28;20097;-70
2021/09/27 13:39:21;;;;;;;1.30;1.00;;;21.90;99.90;;;;;;5059306;28;20062;-70
2021/09/27 13:42:02;;;;;;;1.23;1.05;;;21.80;99.90;;;;;;5054881;28;20040;-71